createdAt,value
2019-05-28T00:00:56.882Z,20.10
2019-05-28T00:03:43.162Z,20.20
2019-05-28T00:06:29.429Z,20.10
2019-05-28T00:09:15.841Z,19.90
2019-05-28T00:12:02.095Z,19.90
2019-05-28T00:14:48.196Z,19.90
2019-05-28T00:17:34.414Z,19.90
2019-05-28T00:20:20.691Z,19.80
2019-05-28T00:23:06.962Z,19.80
2019-05-28T00:25:53.330Z,19.70
2019-05-28T00:28:39.607Z,19.80
2019-05-28T00:31:26.035Z,19.90
2019-05-28T00:34:12.217Z,20.00
2019-05-28T00:36:58.521Z,20.00
2019-05-28T00:39:44.957Z,20.00
2019-05-28T00:42:31.050Z,20.00
2019-05-28T00:45:18.278Z,20.00
2019-05-28T00:48:04.693Z,20.00
2019-05-28T00:50:50.979Z,19.90
2019-05-28T00:53:37.191Z,20.00
2019-05-28T00:56:23.901Z,19.80
2019-05-28T00:59:10.061Z,19.70
2019-05-28T01:01:56.115Z,19.60
2019-05-28T01:04:42.988Z,19.50
2019-05-28T01:07:29.160Z,19.50
2019-05-28T01:10:15.553Z,19.50
2019-05-28T01:13:01.896Z,19.50
2019-05-28T01:15:48.222Z,19.40
2019-05-28T01:18:34.472Z,19.60
2019-05-28T01:21:20.721Z,19.70
2019-05-28T01:24:06.932Z,19.70
2019-05-28T01:26:53.310Z,19.90
2019-05-28T01:29:39.464Z,19.90
2019-05-28T01:32:32.433Z,19.90
2019-05-28T01:35:19.421Z,19.90
2019-05-28T01:38:08.311Z,19.60
2019-05-28T01:40:54.175Z,19.50
2019-05-28T01:43:40.336Z,19.30
2019-05-28T01:46:26.656Z,19.40
2019-05-28T01:49:12.868Z,19.50
2019-05-28T01:51:59.144Z,19.60
2019-05-28T01:54:45.468Z,19.60
2019-05-28T01:57:31.558Z,19.50
2019-05-28T02:00:17.942Z,19.50
2019-05-28T02:03:04.216Z,19.40
2019-05-28T02:05:50.405Z,19.20
2019-05-28T02:08:36.645Z,19.20
2019-05-28T02:11:23.025Z,19.30
2019-05-28T02:14:09.268Z,19.10
2019-05-28T02:16:55.569Z,19.10
2019-05-28T02:19:41.930Z,19.30
2019-05-28T02:22:28.074Z,19.20
2019-05-28T02:25:14.772Z,19.10
2019-05-28T02:28:00.934Z,19.10
2019-05-28T02:30:47.138Z,19.20
2019-05-28T02:33:33.423Z,19.10
2019-05-28T02:36:19.694Z,19.00
2019-05-28T02:39:08.257Z,19.00
2019-05-28T02:41:54.489Z,19.00
2019-05-28T02:44:40.729Z,19.10
2019-05-28T02:47:27.357Z,19.20
2019-05-28T02:50:15.748Z,19.10
2019-05-28T02:53:01.757Z,19.20
2019-05-28T02:55:48.451Z,19.20
2019-05-28T02:58:35.834Z,19.20
2019-05-28T03:01:22.825Z,19.20
2019-05-28T03:04:09.260Z,19.20
2019-05-28T03:06:58.937Z,19.10
2019-05-28T03:09:45.763Z,19.00
2019-05-28T03:12:32.130Z,18.90
2019-05-28T03:15:18.583Z,18.80
2019-05-28T03:18:07.057Z,18.90
2019-05-28T03:20:55.302Z,18.80
2019-05-28T03:23:42.836Z,18.80
2019-05-28T03:26:29.032Z,18.60
2019-05-28T03:29:15.452Z,18.50
2019-05-28T03:32:09.577Z,18.50
2019-05-28T03:34:49.943Z,18.40
2019-05-28T03:37:36.960Z,18.50
2019-05-28T03:40:39.169Z,18.40
2019-05-28T03:43:25.318Z,18.40
2019-05-28T03:46:11.817Z,18.40
2019-05-28T03:48:58.040Z,18.30
2019-05-28T03:51:44.358Z,18.30
2019-05-28T03:54:30.760Z,18.30
2019-05-28T03:57:17.040Z,18.30
2019-05-28T04:00:03.914Z,18.30
2019-05-28T04:02:51.486Z,18.30
2019-05-28T04:05:37.761Z,18.30
2019-05-28T04:08:23.938Z,18.30
2019-05-28T04:11:10.390Z,18.40
2019-05-28T04:13:56.724Z,18.40
2019-05-28T04:16:42.876Z,18.40
2019-05-28T04:19:29.142Z,18.40
2019-05-28T04:22:15.268Z,18.40
2019-05-28T04:25:01.708Z,18.30
2019-05-28T04:27:47.950Z,18.20
2019-05-28T04:30:34.389Z,18.30
2019-05-28T04:33:20.622Z,18.30
2019-05-28T04:36:06.695Z,18.20
2019-05-28T04:38:52.901Z,18.20
2019-05-28T04:41:39.390Z,18.20
2019-05-28T04:44:25.665Z,18.30
2019-05-28T04:47:11.975Z,18.20
2019-05-28T04:49:58.468Z,18.30
2019-05-28T04:52:44.665Z,18.30
2019-05-28T04:55:31.017Z,18.30
2019-05-28T04:58:17.318Z,18.20
2019-05-28T05:01:03.860Z,18.20
2019-05-28T05:03:49.930Z,18.30
2019-05-28T05:06:36.166Z,18.30
2019-05-28T05:09:22.307Z,18.30
2019-05-28T05:12:08.522Z,18.20
2019-05-28T05:14:54.735Z,18.10
2019-05-28T05:17:40.943Z,18.00
2019-05-28T05:20:27.470Z,17.90
2019-05-28T05:23:13.702Z,17.70
2019-05-28T05:26:00.052Z,17.50
2019-05-28T05:28:46.474Z,17.40
2019-05-28T05:31:32.675Z,17.30
2019-05-28T05:34:18.909Z,17.40
2019-05-28T05:37:05.303Z,17.40
2019-05-28T05:39:51.499Z,17.10
2019-05-28T05:42:37.873Z,17.20
2019-05-28T05:45:24.258Z,17.30
2019-05-28T05:48:10.421Z,17.10
2019-05-28T05:50:56.793Z,17.20
2019-05-28T05:53:42.953Z,17.20
2019-05-28T05:56:29.206Z,17.20
2019-05-28T05:59:15.437Z,17.00
2019-05-28T06:02:01.589Z,17.00
2019-05-28T06:04:47.698Z,17.10
2019-05-28T06:07:34.136Z,17.10
2019-05-28T06:10:20.235Z,17.00
2019-05-28T06:13:06.625Z,17.10
2019-05-28T06:15:52.913Z,17.00
2019-05-28T06:18:39.938Z,16.90
2019-05-28T06:21:26.089Z,16.90
2019-05-28T06:24:12.195Z,16.90
2019-05-28T06:26:58.435Z,16.90
2019-05-28T06:29:44.857Z,16.80
2019-05-28T06:32:33.426Z,16.90
2019-05-28T06:35:19.421Z,16.90
2019-05-28T06:38:05.622Z,17.00
2019-05-28T06:40:51.772Z,17.00
2019-05-28T06:43:37.987Z,17.10
2019-05-28T06:46:25.412Z,17.30
2019-05-28T06:49:11.754Z,17.20
2019-05-28T06:51:57.879Z,17.20
2019-05-28T06:54:44.129Z,17.10
2019-05-28T06:57:30.300Z,17.00
2019-05-28T07:00:17.072Z,17.00
2019-05-28T07:03:03.423Z,16.90
2019-05-28T07:06:05.513Z,16.80
2019-05-28T07:08:37.733Z,17.00
2019-05-28T07:11:24.164Z,17.00
2019-05-28T07:14:10.382Z,17.10
2019-05-28T07:16:57.509Z,17.20
2019-05-28T07:19:43.885Z,17.00
2019-05-28T07:22:30.193Z,17.10
2019-05-28T07:25:16.325Z,17.10
2019-05-28T07:28:10.978Z,17.00
2019-05-28T07:30:51.110Z,17.00
2019-05-28T07:33:37.324Z,17.00
2019-05-28T07:36:23.807Z,16.90
2019-05-28T07:39:12.261Z,17.10
2019-05-28T07:41:58.347Z,17.10
2019-05-28T07:44:44.637Z,17.20
2019-05-28T07:47:30.907Z,17.20
2019-05-28T07:50:17.151Z,17.10
2019-05-28T07:53:03.425Z,17.20
2019-05-28T07:55:49.669Z,17.10
2019-05-28T07:58:35.978Z,17.10
2019-05-28T08:01:22.337Z,17.30
2019-05-28T08:04:08.557Z,17.30
2019-05-28T08:06:55.460Z,17.40
2019-05-28T08:09:41.824Z,17.20
2019-05-28T08:12:28.070Z,17.10
2019-05-28T08:15:14.606Z,17.30
2019-05-28T08:18:00.689Z,17.40
2019-05-28T08:20:46.916Z,17.20
2019-05-28T08:23:36.302Z,17.10
2019-05-28T08:26:22.905Z,17.20
2019-05-28T08:29:09.192Z,17.30
2019-05-28T08:31:55.674Z,17.30
2019-05-28T08:34:43.160Z,17.10
2019-05-28T08:37:29.415Z,17.10
2019-05-28T08:40:17.581Z,17.00
2019-05-28T08:43:03.963Z,17.00
2019-05-28T08:45:52.778Z,17.00
2019-05-28T08:48:38.829Z,17.30
2019-05-28T08:51:25.151Z,17.30
2019-05-28T08:54:11.930Z,17.20
2019-05-28T08:56:58.190Z,17.20
2019-05-28T08:59:44.485Z,17.20
2019-05-28T09:02:33.242Z,17.30
2019-05-28T09:05:26.399Z,17.50
2019-05-28T09:08:07.304Z,17.80
2019-05-28T09:10:53.585Z,17.90
2019-05-28T09:13:39.746Z,17.80
2019-05-28T09:16:26.207Z,17.70
2019-05-28T09:19:12.584Z,17.70
2019-05-28T09:21:58.851Z,17.90
2019-05-28T09:24:45.337Z,17.80
2019-05-28T09:27:33.577Z,17.70
2019-05-28T09:30:20.193Z,17.60
2019-05-28T09:33:06.815Z,17.70
2019-05-28T09:36:07.168Z,17.60
2019-05-28T09:38:41.445Z,17.60
2019-05-28T09:41:28.652Z,17.70
2019-05-28T09:44:15.133Z,17.70
2019-05-28T09:47:01.325Z,17.60
2019-05-28T09:49:47.579Z,17.40
2019-05-28T09:52:33.990Z,17.50
2019-05-28T09:55:20.233Z,17.50
2019-05-28T09:58:06.389Z,17.60
2019-05-28T10:00:57.995Z,17.70
2019-05-28T10:03:42.042Z,17.90
2019-05-28T10:06:36.847Z,17.90
2019-05-28T10:09:16.101Z,18.10
2019-05-28T10:12:02.127Z,18.10
2019-05-28T10:14:48.181Z,18.20
2019-05-28T10:17:34.778Z,18.10
2019-05-28T10:20:21.629Z,18.10
2019-05-28T10:23:07.632Z,18.20
2019-05-28T10:25:54.223Z,18.30
2019-05-28T10:28:40.757Z,18.40
2019-05-28T10:31:26.561Z,18.30
2019-05-28T10:34:12.828Z,18.40
2019-05-28T10:36:58.867Z,18.40
2019-05-28T10:39:45.023Z,18.50
2019-05-28T10:42:30.946Z,18.60
2019-05-28T10:45:17.460Z,18.80
2019-05-28T10:48:04.054Z,18.70
2019-05-28T10:50:50.470Z,18.60
2019-05-28T10:53:36.578Z,18.80
2019-05-28T10:56:23.214Z,18.90
2019-05-28T10:59:09.336Z,19.10
2019-05-28T11:01:55.701Z,19.20
2019-05-28T11:04:42.149Z,19.20
2019-05-28T11:07:28.322Z,19.40
2019-05-28T11:10:23.774Z,19.50
2019-05-28T11:13:03.185Z,19.40
2019-05-28T11:15:49.395Z,19.40
2019-05-28T11:18:35.658Z,19.50
2019-05-28T11:21:22.107Z,19.60
2019-05-28T11:24:08.211Z,19.60
2019-05-28T11:26:54.555Z,19.60
2019-05-28T11:29:40.878Z,19.60
2019-05-28T11:32:27.182Z,19.70
2019-05-28T11:35:13.951Z,19.80
2019-05-28T11:38:00.120Z,19.80
2019-05-28T11:40:46.110Z,19.80
2019-05-28T11:43:32.314Z,19.90
2019-05-28T11:46:18.271Z,19.90
2019-05-28T11:49:04.372Z,20.00
2019-05-28T11:51:50.581Z,19.90
2019-05-28T11:54:36.530Z,19.70
2019-05-28T11:57:22.569Z,19.70
2019-05-28T12:00:09.504Z,19.80
2019-05-28T12:02:55.805Z,19.70
2019-05-28T12:05:41.807Z,19.70
2019-05-28T12:08:28.224Z,20.00
2019-05-28T12:11:14.505Z,20.40
2019-05-28T12:14:02.592Z,20.40
2019-05-28T12:16:48.661Z,20.40
2019-05-28T12:19:35.013Z,20.40
2019-05-28T12:22:21.356Z,20.80
2019-05-28T12:25:08.457Z,20.90
2019-05-28T12:27:54.427Z,21.00
2019-05-28T12:30:40.738Z,21.00
2019-05-28T12:33:26.966Z,20.80
2019-05-28T12:36:13.209Z,20.70
2019-05-28T12:38:59.662Z,20.70
2019-05-28T12:42:01.137Z,20.50
2019-05-28T12:44:42.201Z,20.40
2019-05-28T12:47:22.534Z,20.50
2019-05-28T12:50:18.906Z,20.60
2019-05-28T12:52:57.772Z,20.70
2019-05-28T12:55:44.021Z,20.50
2019-05-28T12:58:41.663Z,20.50
2019-05-28T13:01:18.852Z,20.70
2019-05-28T13:04:05.169Z,20.70
2019-05-28T13:06:52.635Z,20.80
2019-05-28T13:09:38.970Z,20.70
2019-05-28T13:12:25.192Z,20.60
2019-05-28T13:15:13.078Z,20.50
2019-05-28T13:17:59.324Z,20.70
2019-05-28T13:20:48.051Z,20.60
2019-05-28T13:23:33.441Z,20.50
2019-05-28T13:26:19.710Z,20.40
2019-05-28T13:29:05.858Z,20.20
2019-05-28T13:31:52.166Z,20.20
2019-05-28T13:34:38.374Z,20.10
2019-05-28T13:37:24.665Z,20.30
2019-05-28T13:40:12.153Z,20.40
2019-05-28T13:42:58.499Z,20.50
2019-05-28T13:45:44.441Z,20.50
2019-05-28T13:48:30.952Z,20.60
2019-05-28T13:51:21.933Z,20.90
2019-05-28T13:54:08.701Z,21.10
2019-05-28T13:56:54.767Z,20.90
2019-05-28T13:59:41.170Z,21.00
2019-05-28T14:02:27.445Z,21.10
2019-05-28T14:05:14.436Z,21.30
2019-05-28T14:08:00.522Z,21.30
2019-05-28T14:10:46.797Z,21.50
2019-05-28T14:13:33.425Z,21.40
2019-05-28T14:16:19.649Z,21.10
2019-05-28T14:19:05.881Z,21.00
2019-05-28T14:21:52.211Z,21.10
2019-05-28T14:24:38.463Z,21.20
2019-05-28T14:27:24.805Z,21.20
2019-05-28T14:30:11.635Z,21.10
2019-05-28T14:32:57.856Z,20.80
2019-05-28T14:35:44.113Z,20.50
2019-05-28T14:38:31.457Z,20.50
2019-05-28T14:41:17.898Z,20.30
2019-05-28T14:44:04.796Z,20.30
2019-05-28T14:46:51.482Z,20.60
2019-05-28T14:49:37.728Z,20.60
2019-05-28T14:52:24.045Z,20.70
2019-05-28T14:55:11.077Z,20.80
2019-05-28T14:57:57.218Z,20.70
2019-05-28T15:00:44.536Z,20.30
2019-05-28T15:03:31.187Z,20.00
2019-05-28T15:06:17.166Z,20.00
2019-05-28T15:09:20.366Z,20.10
2019-05-28T15:11:54.878Z,20.00
2019-05-28T15:14:41.141Z,20.00
2019-05-28T15:17:27.341Z,20.00
2019-05-28T15:20:15.261Z,20.00
2019-05-28T15:23:01.527Z,20.10
2019-05-28T15:25:47.679Z,20.20
2019-05-28T15:28:33.845Z,20.30
2019-05-28T15:31:20.301Z,20.40
2019-05-28T15:34:06.478Z,20.40
2019-05-28T15:36:52.946Z,20.50
2019-05-28T15:39:40.653Z,20.60
2019-05-28T15:42:27.054Z,20.60
2019-05-28T15:45:13.440Z,20.60
2019-05-28T15:48:00.000Z,20.40
2019-05-28T15:50:46.055Z,20.60
2019-05-28T15:53:32.377Z,20.60
2019-05-28T15:56:18.696Z,20.70
2019-05-28T15:59:04.981Z,20.60
2019-05-28T16:01:51.315Z,20.60
2019-05-28T16:04:39.954Z,20.60
2019-05-28T16:07:26.225Z,20.70
2019-05-28T16:10:12.335Z,20.70
2019-05-28T16:12:58.336Z,20.70
2019-05-28T16:15:44.609Z,20.70
2019-05-28T16:18:30.897Z,20.70
2019-05-28T16:21:17.288Z,20.50
2019-05-28T16:24:03.838Z,20.50
2019-05-28T16:26:50.241Z,20.50
2019-05-28T16:29:36.546Z,20.60
2019-05-28T16:32:26.273Z,20.20
2019-05-28T16:35:10.889Z,20.10
2019-05-28T16:37:57.509Z,20.20
2019-05-28T16:40:43.898Z,20.40
2019-05-28T16:43:29.921Z,20.60
2019-05-28T16:46:16.235Z,20.40
2019-05-28T16:49:02.540Z,20.10
2019-05-28T16:51:48.986Z,19.70
2019-05-28T16:54:35.030Z,19.80
2019-05-28T16:57:21.046Z,19.80
2019-05-28T17:00:08.191Z,19.70
2019-05-28T17:02:55.376Z,19.80
2019-05-28T17:05:41.417Z,19.70
2019-05-28T17:08:27.613Z,19.70
2019-05-28T17:11:13.648Z,19.60
2019-05-28T17:13:59.703Z,19.70
2019-05-28T17:16:45.822Z,19.80
2019-05-28T17:19:31.820Z,19.80
2019-05-28T17:22:17.886Z,19.90
2019-05-28T17:25:08.457Z,20.00
2019-05-28T17:27:53.173Z,19.90
2019-05-28T17:30:39.277Z,20.00
2019-05-28T17:33:25.296Z,19.90
2019-05-28T17:36:11.358Z,19.70
2019-05-28T17:38:59.998Z,19.70
2019-05-28T17:41:46.036Z,19.80
2019-05-28T17:44:32.050Z,19.80
2019-05-28T17:47:18.130Z,19.60
2019-05-28T17:50:04.444Z,19.50
2019-05-28T17:52:51.825Z,19.40
2019-05-28T17:55:38.437Z,19.30
2019-05-28T17:58:30.875Z,19.30
2019-05-28T18:01:15.509Z,19.30
2019-05-28T18:04:01.589Z,19.30
2019-05-28T18:06:47.844Z,19.10
2019-05-28T18:09:34.041Z,18.90
2019-05-28T18:12:20.107Z,18.80
2019-05-28T18:15:07.813Z,18.80
2019-05-28T18:17:53.839Z,18.70
2019-05-28T18:20:39.965Z,18.90
2019-05-28T18:23:26.052Z,18.80
2019-05-28T18:26:12.107Z,18.90
2019-05-28T18:28:58.290Z,19.00
2019-05-28T18:31:44.347Z,18.80
2019-05-28T18:34:30.438Z,18.60
2019-05-28T18:37:16.573Z,18.60
2019-05-28T18:40:04.881Z,18.70
2019-05-28T18:42:51.125Z,18.80
2019-05-28T18:45:37.508Z,18.70
2019-05-28T18:48:23.672Z,18.60
2019-05-28T18:51:09.653Z,18.40
2019-05-28T18:53:55.900Z,18.40
2019-05-28T18:56:41.978Z,18.40
2019-05-28T18:59:28.122Z,18.60
2019-05-28T19:02:14.144Z,18.70
2019-05-28T19:05:00.225Z,18.60
2019-05-28T19:07:46.283Z,18.70
2019-05-28T19:10:33.404Z,18.60
2019-05-28T19:13:19.482Z,18.60
2019-05-28T19:16:05.711Z,18.70
2019-05-28T19:18:52.647Z,19.00
2019-05-28T19:21:40.922Z,18.90
2019-05-28T19:24:26.999Z,18.90
2019-05-28T19:27:13.124Z,19.00
2019-05-28T19:29:59.078Z,19.00
2019-05-28T19:32:45.359Z,18.80
2019-05-28T19:35:31.324Z,18.90
2019-05-28T19:38:17.793Z,18.80
2019-05-28T19:41:03.984Z,18.80
2019-05-28T19:43:49.950Z,18.80
2019-05-28T19:46:37.277Z,18.70
2019-05-28T19:49:23.200Z,18.70
2019-05-28T19:52:09.292Z,18.60
2019-05-28T19:54:55.313Z,18.70
2019-05-28T19:57:41.342Z,18.80
2019-05-28T20:00:27.465Z,18.70
2019-05-28T20:03:13.712Z,18.80
2019-05-28T20:05:59.765Z,18.80
2019-05-28T20:08:45.879Z,18.80
2019-05-28T20:11:32.030Z,18.60
2019-05-28T20:14:18.140Z,18.40
2019-05-28T20:17:05.272Z,18.30
2019-05-28T20:19:52.668Z,18.20
2019-05-28T20:22:39.481Z,18.10
2019-05-28T20:25:25.552Z,17.90
2019-05-28T20:28:11.760Z,17.90
2019-05-28T20:30:57.716Z,17.80
2019-05-28T20:33:43.890Z,17.70
2019-05-28T20:36:31.141Z,17.60
2019-05-28T20:39:18.176Z,17.40
2019-05-28T20:42:04.358Z,17.30
2019-05-28T20:44:50.670Z,17.20
2019-05-28T20:47:36.595Z,16.90
2019-05-28T20:50:23.753Z,16.80
2019-05-28T20:53:09.673Z,16.90
2019-05-28T20:55:56.245Z,17.20
2019-05-28T20:58:42.474Z,17.10
2019-05-28T21:01:30.138Z,17.00
2019-05-28T21:04:16.426Z,16.90
2019-05-28T21:07:02.870Z,16.80
2019-05-28T21:09:50.099Z,16.70
2019-05-28T21:12:43.660Z,16.60
2019-05-28T21:15:24.298Z,16.50
2019-05-28T21:18:10.677Z,16.60
2019-05-28T21:20:57.594Z,16.60
2019-05-28T21:23:43.798Z,16.60
2019-05-28T21:26:30.263Z,16.50
2019-05-28T21:29:16.681Z,16.50
2019-05-28T21:32:03.182Z,16.50
2019-05-28T21:34:54.834Z,16.60
2019-05-28T21:37:39.101Z,16.60
2019-05-28T21:40:27.337Z,16.50
2019-05-28T21:43:16.391Z,16.50
2019-05-28T21:46:04.070Z,16.50
2019-05-28T21:48:50.424Z,16.60
2019-05-28T21:51:36.826Z,16.70
2019-05-28T21:54:23.096Z,16.70
2019-05-28T21:57:09.311Z,16.80
2019-05-28T21:59:55.735Z,16.80
2019-05-28T22:02:42.425Z,16.90
2019-05-28T22:05:28.679Z,16.90
2019-05-28T22:08:15.164Z,16.90
2019-05-28T22:11:01.802Z,17.00
2019-05-28T22:13:48.327Z,17.10
2019-05-28T22:16:34.785Z,17.10
2019-05-28T22:19:20.999Z,17.10
2019-05-28T22:22:07.437Z,17.00
2019-05-28T22:24:53.757Z,16.90
2019-05-28T22:27:39.943Z,16.70
2019-05-28T22:30:26.281Z,16.80
2019-05-28T22:33:12.628Z,17.00
2019-05-28T22:35:59.211Z,17.00
2019-05-28T22:39:05.331Z,16.90
2019-05-28T22:41:52.641Z,16.90
2019-05-28T22:44:39.274Z,17.00
2019-05-28T22:47:25.569Z,16.90
2019-05-28T22:50:21.940Z,16.90
2019-05-28T22:53:00.392Z,16.80
2019-05-28T22:55:46.656Z,16.80
2019-05-28T22:58:32.700Z,16.70
2019-05-28T23:01:19.173Z,16.70
2019-05-28T23:04:05.420Z,16.80
2019-05-28T23:06:51.741Z,17.00
2019-05-28T23:09:38.173Z,17.10
2019-05-28T23:12:24.501Z,17.20
2019-05-28T23:15:10.960Z,17.30
2019-05-28T23:17:57.109Z,17.30
2019-05-28T23:20:43.504Z,17.20
2019-05-28T23:23:31.485Z,17.20
2019-05-28T23:26:18.119Z,17.10
2019-05-28T23:29:05.691Z,17.10
2019-05-28T23:31:52.105Z,17.20
2019-05-28T23:34:38.434Z,17.10
2019-05-28T23:37:26.458Z,17.10
2019-05-28T23:40:13.371Z,17.10
2019-05-28T23:43:00.533Z,17.10
2019-05-28T23:45:46.747Z,17.10
2019-05-28T23:48:33.228Z,17.10
2019-05-28T23:51:20.257Z,17.10
2019-05-28T23:54:08.137Z,17.20
2019-05-28T23:56:54.175Z,17.20
2019-05-28T23:59:40.606Z,17.20
